createdAt,value
2022-09-03T00:02:18.466Z,2.35
2022-09-03T00:05:11.255Z,2.28
2022-09-03T00:08:06.032Z,2.20
2022-09-03T00:10:59.115Z,2.50
2022-09-03T00:13:54.485Z,2.30
2022-09-03T00:16:46.005Z,2.30
2022-09-03T00:19:36.465Z,2.42
2022-09-03T00:22:27.150Z,2.22
2022-09-03T00:25:19.276Z,2.35
2022-09-03T00:28:15.162Z,2.50
2022-09-03T00:31:11.489Z,2.40
2022-09-03T00:34:04.448Z,2.40
2022-09-03T00:36:51.529Z,2.53
2022-09-03T00:39:38.514Z,2.72
2022-09-03T00:42:41.689Z,2.97
2022-09-03T00:45:38.309Z,2.50
2022-09-03T00:48:29.999Z,2.40
2022-09-03T00:51:28.568Z,2.40
2022-09-03T00:54:24.673Z,2.40
2022-09-03T00:57:27.070Z,2.47
2022-09-03T01:00:16.037Z,2.20
2022-09-03T01:03:08.772Z,2.45
2022-09-03T01:06:11.221Z,2.13
2022-09-03T01:09:11.188Z,2.30
2022-09-03T01:12:06.664Z,2.30
2022-09-03T01:15:03.477Z,2.65
2022-09-03T01:18:02.590Z,2.15
2022-09-03T01:21:03.673Z,2.35
2022-09-03T01:24:13.833Z,2.30
2022-09-03T01:27:22.357Z,2.30
2022-09-03T01:30:17.521Z,2.20
2022-09-03T01:33:11.034Z,2.40
2022-09-03T01:36:07.366Z,2.17
2022-09-03T01:38:59.142Z,2.55
2022-09-03T01:42:15.790Z,2.20
2022-09-03T01:45:24.477Z,2.80
2022-09-03T01:48:30.450Z,2.30
2022-09-03T01:51:21.433Z,2.53
2022-09-03T01:54:45.774Z,2.28
2022-09-03T01:57:45.086Z,2.10
2022-09-03T02:00:34.778Z,2.28
2022-09-03T02:03:23.850Z,2.00
2022-09-03T02:06:11.391Z,2.10
2022-09-03T02:08:58.419Z,2.43
2022-09-03T02:11:50.606Z,2.45
2022-09-03T02:14:38.263Z,2.30
2022-09-03T02:17:25.962Z,2.63
2022-09-03T02:20:19.524Z,2.10
2022-09-03T02:23:06.534Z,1.97
2022-09-03T02:25:57.727Z,1.90
2022-09-03T02:28:45.173Z,2.30
2022-09-03T02:31:32.215Z,2.27
2022-09-03T02:34:19.803Z,2.10
2022-09-03T02:37:13.232Z,2.13
2022-09-03T02:40:00.318Z,2.17
2022-09-03T02:42:47.736Z,2.10
2022-09-03T02:45:38.783Z,2.40
2022-09-03T02:48:25.906Z,2.00
2022-09-03T02:51:14.423Z,2.00
2022-09-03T02:54:01.636Z,2.03
2022-09-03T02:56:49.008Z,2.30
2022-09-03T02:59:36.209Z,1.67
2022-09-03T03:02:23.212Z,2.13
2022-09-03T03:05:15.458Z,1.70
2022-09-03T03:08:03.248Z,2.33
2022-09-03T03:10:51.805Z,2.27
2022-09-03T03:13:38.740Z,1.90
2022-09-03T03:16:25.672Z,1.80
2022-09-03T03:19:12.722Z,2.00
2022-09-03T03:21:59.972Z,2.00
2022-09-03T03:24:49.669Z,1.90
2022-09-03T03:27:41.033Z,1.90
2022-09-03T03:30:28.033Z,2.00
2022-09-03T03:33:15.040Z,1.90
2022-09-03T03:36:05.516Z,1.80
2022-09-03T03:38:54.393Z,2.10
2022-09-03T03:41:42.004Z,1.80
2022-09-03T03:44:28.996Z,1.70
2022-09-03T03:47:17.029Z,2.10
2022-09-03T03:50:04.917Z,1.90
2022-09-03T03:52:51.865Z,1.83
2022-09-03T03:55:38.900Z,1.70
2022-09-03T03:58:27.381Z,1.70
2022-09-03T04:01:16.345Z,1.83
2022-09-03T04:04:04.837Z,1.83
2022-09-03T04:06:51.805Z,1.60
2022-09-03T04:09:38.721Z,1.97
2022-09-03T04:12:27.177Z,1.83
2022-09-03T04:15:14.850Z,1.80
2022-09-03T04:18:02.005Z,2.00
2022-09-03T04:20:48.945Z,1.63
2022-09-03T04:23:37.553Z,2.13
2022-09-03T04:26:27.514Z,1.83
2022-09-03T04:29:14.462Z,2.00
2022-09-03T04:32:20.634Z,1.73
2022-09-03T04:35:08.198Z,1.63
2022-09-03T04:37:56.010Z,1.60
2022-09-03T04:40:43.186Z,1.70
2022-09-03T04:43:30.130Z,1.90
2022-09-03T04:46:18.444Z,1.63
2022-09-03T04:49:08.546Z,1.80
2022-09-03T04:51:55.450Z,1.90
2022-09-03T04:54:42.586Z,1.50
2022-09-03T04:57:33.625Z,1.80
2022-09-03T05:00:21.003Z,1.80
2022-09-03T05:03:07.935Z,1.67
2022-09-03T05:05:56.315Z,1.67
2022-09-03T05:08:43.754Z,1.63
2022-09-03T05:11:30.741Z,1.60
2022-09-03T05:14:17.741Z,1.70
2022-09-03T05:17:04.717Z,1.60
2022-09-03T05:19:52.026Z,1.90
2022-09-03T05:22:39.571Z,1.70
2022-09-03T05:25:26.672Z,1.90
2022-09-03T05:28:14.132Z,1.80
2022-09-03T05:31:01.849Z,1.73
2022-09-03T05:33:50.592Z,1.97
2022-09-03T05:36:38.191Z,1.90
2022-09-03T05:39:26.016Z,1.80
2022-09-03T05:42:13.553Z,1.60
2022-09-03T05:45:00.637Z,1.70
2022-09-03T05:47:47.559Z,1.87
2022-09-03T05:50:34.509Z,1.80
2022-09-03T05:53:22.305Z,1.60
2022-09-03T05:56:11.833Z,1.80
2022-09-03T05:59:00.922Z,1.93
2022-09-03T06:01:51.404Z,2.00
2022-09-03T06:04:39.243Z,1.83
2022-09-03T06:07:26.482Z,1.87
2022-09-03T06:10:15.282Z,1.70
2022-09-03T06:13:03.106Z,1.70
2022-09-03T06:15:50.048Z,1.70
2022-09-03T06:18:36.961Z,2.40
2022-09-03T06:21:23.892Z,2.00
2022-09-03T06:24:12.069Z,1.90
2022-09-03T06:26:59.131Z,1.73
2022-09-03T06:29:46.891Z,1.73
2022-09-03T06:32:33.829Z,2.07
2022-09-03T06:35:20.841Z,1.80
2022-09-03T06:38:10.832Z,1.80
2022-09-03T06:41:01.193Z,1.80
2022-09-03T06:43:48.710Z,2.20
2022-09-03T06:46:38.023Z,2.35
2022-09-03T06:49:24.944Z,1.92
2022-09-03T06:52:11.874Z,2.03
2022-09-03T06:54:58.802Z,2.00
2022-09-03T06:57:45.761Z,2.00
2022-09-03T07:00:32.727Z,1.90
2022-09-03T07:03:20.790Z,2.22
2022-09-03T07:06:09.515Z,1.92
2022-09-03T07:08:58.283Z,2.22
2022-09-03T07:11:46.375Z,1.90
2022-09-03T07:14:33.343Z,2.00
2022-09-03T07:17:20.260Z,2.08
2022-09-03T07:20:08.513Z,2.00
2022-09-03T07:22:56.510Z,2.08
2022-09-03T07:25:43.484Z,1.90
2022-09-03T07:28:31.643Z,2.40
2022-09-03T07:31:21.759Z,2.50
2022-09-03T07:34:10.818Z,2.22
2022-09-03T07:36:58.451Z,2.08
2022-09-03T07:39:45.980Z,2.13
2022-09-03T07:42:35.316Z,2.08
2022-09-03T07:45:23.208Z,2.08
2022-09-03T07:48:12.232Z,2.17
2022-09-03T07:51:02.234Z,2.00
2022-09-03T07:53:52.993Z,2.40
2022-09-03T07:56:40.475Z,2.30
2022-09-03T07:59:27.571Z,2.00
2022-09-03T08:02:14.532Z,2.58
2022-09-03T08:05:01.460Z,2.30
2022-09-03T08:07:48.784Z,2.20
2022-09-03T08:10:37.476Z,2.40
2022-09-03T08:13:24.724Z,2.17
2022-09-03T08:16:15.948Z,2.22
2022-09-03T08:19:03.385Z,1.88
2022-09-03T08:21:50.366Z,2.10
2022-09-03T08:24:37.644Z,1.92
2022-09-03T08:27:25.341Z,1.77
2022-09-03T08:30:12.385Z,1.88
2022-09-03T08:33:04.055Z,1.92
2022-09-03T08:35:53.625Z,2.17
2022-09-03T08:38:42.446Z,1.80
2022-09-03T08:41:40.083Z,1.60
2022-09-03T08:44:29.845Z,1.88
2022-09-03T08:47:21.737Z,1.90
2022-09-03T08:50:23.757Z,1.75
2022-09-03T08:53:16.005Z,2.03
2022-09-03T08:56:07.411Z,1.73
2022-09-03T08:58:55.303Z,1.35
2022-09-03T09:01:54.895Z,1.77
2022-09-03T09:04:52.718Z,1.60
2022-09-03T09:07:45.538Z,2.00
2022-09-03T09:10:37.834Z,1.83
2022-09-03T09:13:33.918Z,1.80
2022-09-03T09:16:26.701Z,1.73
2022-09-03T09:19:29.050Z,1.67
2022-09-03T09:22:25.754Z,1.23
2022-09-03T09:25:17.546Z,1.50
2022-09-03T09:28:13.410Z,1.73
2022-09-03T09:31:02.724Z,1.83
2022-09-03T09:33:51.644Z,4.25
2022-09-03T09:36:46.363Z,1.50
2022-09-03T09:39:33.465Z,1.60
2022-09-03T09:42:22.614Z,1.40
2022-09-03T09:45:10.604Z,1.90
2022-09-03T09:47:57.551Z,1.80
2022-09-03T09:50:45.024Z,1.70
2022-09-03T09:53:34.203Z,1.50
2022-09-03T09:56:23.410Z,1.70
2022-09-03T09:59:11.935Z,1.70
2022-09-03T10:02:13.795Z,1.80
2022-09-03T10:05:15.448Z,1.95
2022-09-03T10:08:04.575Z,1.80
2022-09-03T10:10:52.220Z,1.80
2022-09-03T10:13:44.860Z,1.73
2022-09-03T10:16:37.188Z,1.75
2022-09-03T10:19:34.679Z,2.20
2022-09-03T10:22:23.500Z,1.80
2022-09-03T10:25:10.964Z,1.70
2022-09-03T10:28:01.478Z,1.63
2022-09-03T10:31:00.430Z,1.63
2022-09-03T10:33:50.820Z,1.83
2022-09-03T10:36:46.009Z,1.70
2022-09-03T10:39:51.607Z,1.88
2022-09-03T10:42:45.269Z,1.67
2022-09-03T10:45:39.240Z,1.80
2022-09-03T10:48:57.990Z,2.08
2022-09-03T10:51:53.821Z,1.98
2022-09-03T10:54:53.361Z,1.88
2022-09-03T10:57:48.017Z,1.92
2022-09-03T11:00:41.069Z,1.70
2022-09-03T11:03:45.068Z,1.70
2022-09-03T11:06:41.885Z,1.77
2022-09-03T11:09:36.117Z,2.05
2022-09-03T11:12:28.869Z,1.70
2022-09-03T11:15:27.558Z,1.88
2022-09-03T11:18:19.800Z,1.85
2022-09-03T11:21:12.382Z,1.80
2022-09-03T11:24:06.765Z,1.73
2022-09-03T11:27:02.186Z,1.90
2022-09-03T11:29:55.989Z,1.75
2022-09-03T11:32:49.640Z,1.80
2022-09-03T11:35:42.811Z,2.08
2022-09-03T11:38:31.273Z,2.00
2022-09-03T11:41:26.272Z,1.95
2022-09-03T11:44:19.605Z,1.95
2022-09-03T11:47:20.574Z,1.77
2022-09-03T11:50:16.739Z,2.40
2022-09-03T11:53:24.466Z,1.98
2022-09-03T11:56:18.670Z,1.80
2022-09-03T11:59:18.681Z,1.80
2022-09-03T12:02:14.159Z,1.90
2022-09-03T12:05:14.873Z,1.83
2022-09-03T12:08:28.139Z,1.77
2022-09-03T12:11:29.638Z,2.03
2022-09-03T12:14:23.242Z,1.90
2022-09-03T12:17:26.335Z,2.05
2022-09-03T12:20:16.386Z,1.60
2022-09-03T12:23:03.342Z,1.90
2022-09-03T12:25:52.443Z,1.98
2022-09-03T12:28:41.516Z,1.90
2022-09-03T12:31:34.244Z,1.80
2022-09-03T12:34:22.512Z,1.92
2022-09-03T12:38:04.396Z,2.20
2022-09-03T12:40:29.427Z,2.00
2022-09-03T12:46:34.211Z,2.30
2022-09-03T12:49:36.730Z,2.08
2022-09-03T12:52:28.084Z,2.20
2022-09-03T12:55:27.669Z,2.55
2022-09-03T12:58:19.772Z,2.15
2022-09-03T13:01:12.325Z,2.25
2022-09-03T13:04:04.524Z,2.17
2022-09-03T13:06:55.996Z,1.98
2022-09-03T13:09:45.901Z,2.00
2022-09-03T13:12:41.141Z,2.25
2022-09-03T13:15:30.420Z,2.30
2022-09-03T13:18:28.985Z,1.77
2022-09-03T13:21:21.685Z,1.90
2022-09-03T13:24:38.206Z,1.92
2022-09-03T13:27:31.615Z,1.95
2022-09-03T13:30:22.302Z,2.08
2022-09-03T13:33:20.032Z,2.50
2022-09-03T13:36:14.416Z,2.17
2022-09-03T13:39:06.462Z,1.92
2022-09-03T13:42:05.214Z,1.92
2022-09-03T13:44:58.321Z,2.17
2022-09-03T13:48:10.570Z,2.10
2022-09-03T13:51:07.061Z,2.20
2022-09-03T13:54:06.050Z,1.92
2022-09-03T13:57:00.548Z,1.90
2022-09-03T13:59:52.238Z,2.00
2022-09-03T14:02:51.686Z,1.83
2022-09-03T14:05:50.278Z,2.10
2022-09-03T14:08:58.929Z,2.10
2022-09-03T14:11:57.111Z,2.00
2022-09-03T14:14:52.999Z,1.80
2022-09-03T14:17:45.676Z,1.90
2022-09-03T14:20:37.679Z,2.00
2022-09-03T14:23:35.687Z,2.10
2022-09-03T14:26:38.582Z,2.03
2022-09-03T14:29:29.304Z,1.92
2022-09-03T14:32:28.745Z,2.17
2022-09-03T14:35:36.224Z,2.20
2022-09-03T14:39:00.148Z,2.10
2022-09-03T14:42:18.030Z,2.00
2022-09-03T14:45:36.812Z,2.30
2022-09-03T14:48:49.404Z,2.08
2022-09-03T14:51:57.377Z,2.35
2022-09-03T14:55:13.516Z,2.08
2022-09-03T14:58:22.748Z,2.45
2022-09-03T15:01:13.380Z,2.65
2022-09-03T15:04:44.914Z,2.20
2022-09-03T15:07:36.338Z,2.50
2022-09-03T15:10:32.266Z,2.40
2022-09-03T15:13:23.563Z,2.10
2022-09-03T15:16:34.227Z,2.13
2022-09-03T15:19:41.759Z,2.20
2022-09-03T15:22:49.938Z,2.47
2022-09-03T15:25:53.912Z,2.40
2022-09-03T15:29:01.306Z,2.45
2022-09-03T15:31:57.422Z,2.40
2022-09-03T15:35:03.871Z,2.42
2022-09-03T15:37:56.988Z,2.60
2022-09-03T15:40:50.854Z,2.03
2022-09-03T15:43:39.923Z,2.40
2022-09-03T15:46:48.894Z,2.25
2022-09-03T15:49:53.435Z,2.58
2022-09-03T15:52:52.491Z,2.20
2022-09-03T15:55:42.024Z,2.50
2022-09-03T15:58:33.739Z,2.30
2022-09-03T16:01:31.528Z,2.53
2022-09-03T16:04:48.268Z,2.22
2022-09-03T16:07:55.523Z,2.20
2022-09-03T16:10:53.920Z,2.45
2022-09-03T16:13:54.441Z,2.40
2022-09-03T16:16:59.911Z,2.00
2022-09-03T16:19:54.856Z,2.30
2022-09-03T16:22:46.631Z,2.13
2022-09-03T16:25:44.405Z,2.83
2022-09-03T16:28:36.828Z,2.70
2022-09-03T16:31:34.146Z,2.90
2022-09-03T16:34:28.750Z,2.67
2022-09-03T16:37:25.001Z,2.35
2022-09-03T16:40:23.171Z,2.55
2022-09-03T16:43:40.190Z,2.30
2022-09-03T16:46:36.047Z,2.38
2022-09-03T16:49:38.203Z,2.72
2022-09-03T16:52:39.443Z,2.70
2022-09-03T16:55:43.580Z,2.70
2022-09-03T16:58:37.156Z,2.83
2022-09-03T17:01:51.480Z,2.55
2022-09-03T17:04:59.300Z,2.80
2022-09-03T17:08:05.268Z,3.30
2022-09-03T17:11:02.565Z,2.67
2022-09-03T17:14:05.693Z,2.63
2022-09-03T17:17:04.633Z,2.92
2022-09-03T17:19:58.364Z,2.53
2022-09-03T17:22:59.882Z,2.55
2022-09-03T17:25:53.810Z,2.90
2022-09-03T17:28:54.557Z,2.47
2022-09-03T17:31:50.590Z,2.67
2022-09-03T17:34:49.910Z,2.97
2022-09-03T17:37:55.813Z,3.00
2022-09-03T17:40:53.054Z,2.83
2022-09-03T17:43:46.615Z,3.30
2022-09-03T17:46:41.735Z,2.85
2022-09-03T17:49:32.462Z,3.03
2022-09-03T17:52:27.093Z,2.97
2022-09-03T17:55:22.488Z,3.30
2022-09-03T17:58:13.953Z,3.60
2022-09-03T18:01:12.308Z,4.72
2022-09-03T18:04:10.504Z,3.35
2022-09-03T18:07:07.748Z,3.40
2022-09-03T18:10:03.976Z,3.75
2022-09-03T18:13:03.720Z,3.55
2022-09-03T18:15:59.134Z,3.47
2022-09-03T18:18:50.066Z,3.50
2022-09-03T18:21:57.165Z,4.00
2022-09-03T18:25:15.877Z,4.00
2022-09-03T18:28:26.181Z,3.50
2022-09-03T18:31:35.142Z,3.72
2022-09-03T18:34:50.915Z,3.70
2022-09-03T18:37:56.505Z,3.20
2022-09-03T18:41:11.168Z,3.28
2022-09-03T18:44:27.165Z,3.53
2022-09-03T18:48:06.054Z,3.35
2022-09-03T18:51:18.481Z,3.50
2022-09-03T18:54:56.968Z,3.20
2022-09-03T18:58:12.007Z,3.88
2022-09-03T19:01:23.406Z,3.63
2022-09-03T19:04:38.435Z,4.05
2022-09-03T19:07:59.048Z,3.60
2022-09-03T19:11:12.554Z,3.10
2022-09-03T19:14:22.286Z,3.53
2022-09-03T19:17:34.658Z,3.42
2022-09-03T19:20:45.019Z,3.03
2022-09-03T19:23:51.699Z,3.00
2022-09-03T19:27:29.930Z,3.10
2022-09-03T19:30:41.121Z,3.53
2022-09-03T19:33:57.426Z,3.00
2022-09-03T19:37:10.463Z,3.78
2022-09-03T19:40:31.686Z,3.67
2022-09-03T19:43:47.424Z,3.30
2022-09-03T19:47:01.103Z,2.90
2022-09-03T19:50:20.864Z,3.60
2022-09-03T19:53:29.868Z,3.42
2022-09-03T19:56:45.167Z,3.33
2022-09-03T19:59:54.547Z,3.20
2022-09-03T20:03:04.065Z,2.70
2022-09-03T20:06:11.525Z,3.00
2022-09-03T20:09:24.928Z,2.97
2022-09-03T20:12:15.875Z,2.72
2022-09-03T20:15:04.108Z,3.22
2022-09-03T20:18:02.502Z,2.90
2022-09-03T20:20:57.485Z,2.97
2022-09-03T20:23:51.235Z,2.83
2022-09-03T20:26:47.225Z,2.80
2022-09-03T20:29:54.143Z,2.58
2022-09-03T20:33:22.930Z,2.63
2022-09-03T20:36:21.797Z,2.90
2022-09-03T20:39:31.677Z,2.63
2022-09-03T20:42:46.348Z,2.50
2022-09-03T20:45:44.164Z,2.67
2022-09-03T20:48:39.102Z,2.53
2022-09-03T20:51:33.714Z,2.60
2022-09-03T20:54:27.688Z,2.50
2022-09-03T20:57:32.791Z,2.40
2022-09-03T21:00:22.399Z,2.35
2022-09-03T21:03:15.745Z,3.20
2022-09-03T21:06:12.884Z,2.95
2022-09-03T21:09:14.749Z,2.80
2022-09-03T21:12:08.910Z,3.03
2022-09-03T21:15:02.947Z,3.38
2022-09-03T21:18:01.388Z,2.90
2022-09-03T21:20:57.923Z,2.70
2022-09-03T21:23:48.283Z,2.72
2022-09-03T21:26:41.076Z,2.80
2022-09-03T21:29:33.896Z,2.60
2022-09-03T21:32:28.192Z,2.70
2022-09-03T21:35:21.245Z,2.88
2022-09-03T21:38:13.552Z,2.60
2022-09-03T21:41:09.952Z,2.78
2022-09-03T21:44:01.067Z,2.72
2022-09-03T21:46:54.262Z,2.72
2022-09-03T21:50:02.167Z,3.03
2022-09-03T21:52:55.155Z,2.83
2022-09-03T21:55:50.445Z,3.20
2022-09-03T21:58:53.160Z,2.70
2022-09-03T22:01:55.956Z,3.15
2022-09-03T22:04:43.692Z,2.92
2022-09-03T22:07:45.808Z,2.67
2022-09-03T22:10:48.369Z,2.90
2022-09-03T22:13:42.217Z,3.10
2022-09-03T22:16:34.817Z,2.88
2022-09-03T22:19:22.513Z,2.95
2022-09-03T22:22:15.896Z,3.28
2022-09-03T22:25:08.590Z,2.80
2022-09-03T22:28:02.552Z,2.97
2022-09-03T22:30:58.268Z,3.08
2022-09-03T22:33:50.431Z,2.95
2022-09-03T22:36:41.157Z,3.20
2022-09-03T22:39:34.110Z,2.78
2022-09-03T22:42:43.925Z,3.03
2022-09-03T22:45:47.518Z,2.78
2022-09-03T22:48:53.569Z,3.38
2022-09-03T22:51:52.205Z,3.35
2022-09-03T22:54:53.582Z,2.90
2022-09-03T22:57:51.709Z,3.25
2022-09-03T23:00:44.830Z,2.90
2022-09-03T23:03:39.614Z,3.00
2022-09-03T23:06:31.645Z,3.00
2022-09-03T23:09:22.365Z,3.15
2022-09-03T23:12:17.930Z,3.70
2022-09-03T23:15:10.501Z,3.03
2022-09-03T23:18:05.841Z,3.00
2022-09-03T23:20:58.657Z,3.17
2022-09-03T23:23:50.020Z,3.03
2022-09-03T23:26:42.735Z,3.58
2022-09-03T23:29:35.457Z,3.58
2022-09-03T23:32:23.146Z,3.20
2022-09-03T23:35:16.945Z,3.40
2022-09-03T23:38:14.062Z,3.60
2022-09-03T23:41:06.169Z,3.33
2022-09-03T23:44:20.222Z,3.35
2022-09-03T23:47:22.613Z,3.78
2022-09-03T23:50:28.514Z,3.90
2022-09-03T23:53:27.026Z,3.78
2022-09-03T23:56:33.835Z,3.60
2022-09-03T23:59:28.828Z,4.07
